Time;durP1;ratioP1;P1;durP2;ratioP2;P2;SDS_P1;SDS_P2;PMS_P1;PMS_P2;Temp;Humidity;BMP_temperature;BMP_pressure;BME280_temperature;BME280_humidity;BME280_pressure;Samples;Min_cycle;Max_cycle;Signal;HPM_P1;HPM_P2
2022/02/21 00:00:00;;;;;;;1.90;1.00;;;10.20;99.90;;;;;;2064713;28;20027;-72
2022/02/21 00:01:22;;;;;;;2.67;0.90;;;10.20;99.90;;;;;;2062676;28;20473;-71
2022/02/21 00:02:42;;;;;;;0.90;0.90;;;10.20;99.90;;;;;;2065888;28;20390;-72
2022/02/21 00:03:42;;;;;;;1.45;0.90;;;10.20;99.90;;;;;;2060617;28;20011;-71
2022/02/21 00:04:43;;;;;;;1.00;0.90;;;10.10;99.90;;;;;;2065911;28;20041;-71
2022/02/21 00:05:43;;;;;;;1.85;1.08;;;10.20;99.90;;;;;;2058819;28;20698;-72
2022/02/21 00:06:44;;;;;;;4.80;0.98;;;10.20;99.90;;;;;;2058472;28;20020;-71
2022/02/21 00:07:47;;;;;;;1.30;0.90;;;10.20;99.90;;;;;;2055023;28;20490;-71
2022/02/21 00:08:47;;;;;;;1.63;1.13;;;10.20;99.90;;;;;;2054435;28;20497;-71
2022/02/21 00:09:48;;;;;;;1.63;1.00;;;10.20;99.90;;;;;;2054394;28;20031;-71
2022/02/21 00:10:50;;;;;;;3.08;1.00;;;10.10;99.90;;;;;;2057515;28;20023;-71
2022/02/21 00:11:51;;;;;;;1.20;1.00;;;10.20;99.90;;;;;;2066032;28;20516;-71
2022/02/21 00:12:51;;;;;;;1.70;1.10;;;10.20;99.90;;;;;;2063878;28;20101;-71
2022/02/21 00:13:52;;;;;;;2.30;1.20;;;10.20;99.90;;;;;;2055546;28;20359;-71
2022/02/21 00:14:53;;;;;;;1.63;1.00;;;10.20;99.90;;;;;;2057726;28;20126;-71
2022/02/21 00:15:53;;;;;;;2.55;1.20;;;10.20;99.90;;;;;;2066184;28;20027;-72
2022/02/21 00:16:54;;;;;;;1.92;1.17;;;10.20;99.90;;;;;;2058122;28;20094;-71
2022/02/21 00:17:56;;;;;;;1.83;1.08;;;10.20;99.90;;;;;;2060088;28;20034;-73
2022/02/21 00:18:59;;;;;;;2.20;1.20;;;10.20;99.90;;;;;;2059884;28;20077;-73
2022/02/21 00:20:00;;;;;;;1.90;1.15;;;10.20;99.90;;;;;;2053502;28;20023;-74
2022/02/21 00:21:01;;;;;;;2.72;1.30;;;10.20;99.90;;;;;;2061877;28;20034;-74
2022/02/21 00:22:02;;;;;;;1.10;1.00;;;10.20;99.90;;;;;;2069791;28;20049;-74
2022/02/21 00:23:07;;;;;;;2.78;1.20;;;10.30;99.90;;;;;;2067643;28;20037;-74
2022/02/21 00:24:08;;;;;;;3.00;1.30;;;10.30;99.90;;;;;;2065268;28;20021;-74
2022/02/21 00:25:10;;;;;;;3.25;1.30;;;10.30;99.90;;;;;;2063491;28;20023;-73
2022/02/21 00:26:12;;;;;;;3.00;1.25;;;10.30;99.90;;;;;;2048430;28;20038;-73
2022/02/21 00:27:13;;;;;;;3.03;1.30;;;10.30;99.90;;;;;;2057019;28;20035;-74
2022/02/21 00:28:15;;;;;;;2.47;1.30;;;10.30;99.90;;;;;;2054813;28;20024;-73
2022/02/21 00:29:16;;;;;;;4.70;1.50;;;10.30;99.90;;;;;;2060766;28;20038;-74
2022/02/21 00:30:16;;;;;;;2.80;1.25;;;10.30;99.90;;;;;;2058009;28;20061;-74
2022/02/21 00:31:18;;;;;;;3.13;1.40;;;10.30;99.90;;;;;;2059905;28;20387;-73
2022/02/21 00:32:19;;;;;;;2.83;1.20;;;10.20;99.90;;;;;;2058802;28;20019;-74
2022/02/21 00:33:20;;;;;;;3.22;1.40;;;10.30;99.90;;;;;;2058524;28;20050;-73
2022/02/21 00:34:21;;;;;;;3.97;1.40;;;10.30;99.90;;;;;;2059114;28;20019;-73
2022/02/21 00:35:23;;;;;;;3.47;1.38;;;10.30;99.90;;;;;;2069553;28;20026;-72
2022/02/21 00:36:24;;;;;;;3.10;1.40;;;10.30;99.90;;;;;;2057713;28;20074;-72
2022/02/21 00:37:25;;;;;;;3.17;1.27;;;10.30;99.90;;;;;;2058555;28;20034;-73
2022/02/21 00:38:26;;;;;;;5.28;1.42;;;10.30;99.90;;;;;;2055482;28;20470;-73
2022/02/21 00:39:30;;;;;;;3.00;1.48;;;10.30;99.90;;;;;;2051595;28;20050;-74
2022/02/21 00:40:31;;;;;;;6.47;1.70;;;10.30;99.90;;;;;;2073217;28;20030;-74
2022/02/21 00:41:32;;;;;;;3.33;1.42;;;10.40;99.90;;;;;;2066447;28;20510;-73
2022/02/21 00:42:33;;;;;;;3.42;1.50;;;10.40;99.90;;;;;;2064916;28;20076;-74
2022/02/21 00:43:33;;;;;;;3.15;1.40;;;10.40;99.90;;;;;;2065899;28;20098;-73
2022/02/21 00:44:34;;;;;;;3.28;1.40;;;10.40;99.90;;;;;;2065275;28;20038;-72
2022/02/21 00:45:35;;;;;;;3.78;1.60;;;10.40;99.90;;;;;;2050739;28;20029;-73
2022/02/21 00:46:36;;;;;;;4.95;1.70;;;10.40;99.90;;;;;;2049701;28;20027;-73
2022/02/21 00:47:39;;;;;;;3.28;1.50;;;10.40;99.90;;;;;;2062026;28;20034;-73
2022/02/21 00:48:40;;;;;;;3.53;1.45;;;10.40;99.90;;;;;;2065789;28;20096;-73
2022/02/21 00:49:41;;;;;;;3.97;1.40;;;10.40;99.90;;;;;;2059501;28;20090;-73
2022/02/21 00:50:42;;;;;;;5.65;1.48;;;10.40;99.90;;;;;;2073711;28;20096;-73
2022/02/21 00:51:43;;;;;;;3.15;1.35;;;10.40;99.90;;;;;;2049025;28;20399;-73
2022/02/21 00:52:43;;;;;;;4.05;1.40;;;10.50;99.90;;;;;;2058773;28;20043;-73
2022/02/21 00:53:44;;;;;;;2.67;1.30;;;10.50;99.90;;;;;;2066156;28;20026;-73
2022/02/21 00:54:45;;;;;;;4.15;1.60;;;10.50;99.90;;;;;;2064891;28;20509;-73
2022/02/21 00:55:47;;;;;;;5.53;1.65;;;10.60;99.90;;;;;;2051270;28;20049;-74
2022/02/21 00:56:48;;;;;;;4.32;1.55;;;10.60;99.90;;;;;;2064729;28;20014;-73
2022/02/21 00:57:50;;;;;;;5.78;1.73;;;10.60;99.90;;;;;;2059326;28;20046;-74
2022/02/21 00:58:51;;;;;;;5.38;1.52;;;10.60;99.90;;;;;;2066121;28;20054;-72
2022/02/21 00:59:51;;;;;;;4.32;1.50;;;10.60;99.90;;;;;;2058992;28;20023;-71
2022/02/21 01:00:52;;;;;;;3.30;1.50;;;10.60;99.90;;;;;;2064381;28;20033;-72
2022/02/21 01:01:53;;;;;;;4.03;1.40;;;10.60;99.90;;;;;;2053589;28;20039;-72
2022/02/21 01:02:54;;;;;;;3.08;1.50;;;10.60;99.90;;;;;;2049972;28;20029;-72
2022/02/21 01:03:55;;;;;;;4.05;1.40;;;10.60;99.90;;;;;;2061323;28;20039;-72
2022/02/21 01:04:56;;;;;;;3.80;1.50;;;10.60;99.90;;;;;;2065154;28;20058;-72
2022/02/21 01:05:57;;;;;;;4.47;1.60;;;10.60;99.90;;;;;;2059103;28;20026;-72
2022/02/21 01:06:57;;;;;;;3.20;1.52;;;10.60;99.90;;;;;;2063221;28;20050;-72
2022/02/21 01:07:58;;;;;;;4.05;1.50;;;10.60;99.90;;;;;;2061721;28;20588;-72
2022/02/21 01:08:59;;;;;;;3.88;1.50;;;10.60;99.90;;;;;;2065352;28;20037;-73
2022/02/21 01:10:01;;;;;;;2.90;1.30;;;10.50;99.90;;;;;;2065150;28;20027;-72
2022/02/21 01:11:08;;;;;;;3.53;1.60;;;10.60;99.90;;;;;;2065273;28;20022;-72
2022/02/21 01:12:09;;;;;;;4.97;1.50;;;10.60;99.90;;;;;;2068378;28;20018;-72
2022/02/21 01:13:10;;;;;;;3.92;1.50;;;10.70;99.90;;;;;;2061766;28;20433;-72
2022/02/21 01:14:12;;;;;;;3.90;1.40;;;10.70;99.90;;;;;;2061546;28;20096;-72
2022/02/21 01:15:18;;;;;;;3.38;1.42;;;10.70;99.90;;;;;;2061396;28;20498;-73
2022/02/21 01:16:20;;;;;;;4.43;1.45;;;10.70;99.90;;;;;;2066731;28;20023;-71
2022/02/21 01:17:22;;;;;;;3.08;1.33;;;10.70;99.90;;;;;;2069011;28;20021;-72
2022/02/21 01:18:23;;;;;;;2.97;1.08;;;10.70;99.90;;;;;;2063362;28;20052;-71
2022/02/21 01:19:27;;;;;;;3.80;1.30;;;10.70;99.90;;;;;;2059477;28;20029;-72
2022/02/21 01:20:28;;;;;;;3.53;1.40;;;10.70;99.90;;;;;;2063554;28;20030;-71
2022/02/21 01:21:29;;;;;;;2.95;1.30;;;10.70;99.90;;;;;;2063905;28;20027;-71
2022/02/21 01:22:34;;;;;;;3.88;1.40;;;10.70;99.90;;;;;;2057308;28;20485;-71
2022/02/21 01:23:39;;;;;;;2.53;1.20;;;10.70;99.90;;;;;;2057444;28;20027;-71
2022/02/21 01:24:39;;;;;;;1.92;1.00;;;10.70;99.90;;;;;;2064273;28;20464;-72
2022/02/21 01:25:40;;;;;;;2.50;1.20;;;10.70;99.90;;;;;;2056668;28;20030;-71
2022/02/21 01:26:41;;;;;;;3.25;1.27;;;10.70;99.90;;;;;;2064185;28;20057;-71
2022/02/21 01:27:41;;;;;;;3.95;1.20;;;10.80;99.90;;;;;;2056481;28;20027;-71
2022/02/21 01:28:42;;;;;;;3.83;1.20;;;10.80;99.90;;;;;;2056312;28;20478;-71
2022/02/21 01:29:46;;;;;;;3.50;1.38;;;10.80;99.90;;;;;;2064488;28;20080;-71
2022/02/21 01:30:47;;;;;;;3.20;1.38;;;10.80;99.90;;;;;;2071740;28;20034;-72
2022/02/21 01:31:47;;;;;;;2.70;1.10;;;10.70;99.90;;;;;;2057797;28;20069;-73
2022/02/21 01:32:48;;;;;;;2.40;1.20;;;10.70;99.90;;;;;;2072390;28;20038;-72
2022/02/21 01:33:49;;;;;;;3.20;1.33;;;10.80;99.90;;;;;;2072165;28;20122;-73
2022/02/21 01:34:49;;;;;;;2.50;1.08;;;10.80;99.90;;;;;;2064388;28;20038;-72
2022/02/21 01:35:50;;;;;;;3.83;1.30;;;10.80;99.90;;;;;;2048862;29;20036;-73
2022/02/21 01:36:52;;;;;;;2.70;1.00;;;10.80;99.90;;;;;;2051220;28;20027;-73
2022/02/21 01:37:52;;;;;;;2.78;1.10;;;10.80;99.90;;;;;;2058811;28;20072;-72
2022/02/21 01:38:53;;;;;;;2.65;1.10;;;10.70;99.90;;;;;;2072175;28;20080;-73
2022/02/21 01:39:53;;;;;;;1.20;0.93;;;10.70;99.90;;;;;;2056592;28;20462;-74
2022/02/21 01:40:54;;;;;;;2.70;1.10;;;10.70;99.90;;;;;;2055946;28;20031;-73
2022/02/21 01:41:58;;;;;;;2.72;1.20;;;10.70;99.90;;;;;;2057535;28;20081;-74
2022/02/21 01:43:01;;;;;;;1.65;1.23;;;10.70;99.90;;;;;;2063198;28;20022;-73
2022/02/21 01:44:07;;;;;;;1.92;1.10;;;10.70;99.90;;;;;;2050939;28;20085;-73
2022/02/21 01:45:08;;;;;;;2.65;1.00;;;10.80;99.90;;;;;;2064501;28;20100;-72
2022/02/21 01:46:09;;;;;;;2.53;1.20;;;10.80;99.90;;;;;;2072226;28;20153;-72
2022/02/21 01:47:18;;;;;;;2.53;1.10;;;10.70;99.90;;;;;;2060795;28;20047;-73
2022/02/21 01:48:19;;;;;;;2.60;1.20;;;10.70;99.90;;;;;;2061533;28;20030;-73
2022/02/21 01:49:19;;;;;;;2.80;1.23;;;10.70;99.90;;;;;;2060186;28;20042;-73
2022/02/21 01:50:20;;;;;;;1.77;1.10;;;10.80;99.90;;;;;;2053989;28;20066;-72
2022/02/21 01:51:21;;;;;;;1.90;1.10;;;10.80;99.90;;;;;;2052382;28;20020;-72
2022/02/21 01:52:22;;;;;;;1.67;1.10;;;10.80;99.90;;;;;;2062634;28;20057;-74
2022/02/21 01:53:22;;;;;;;3.22;0.90;;;10.80;99.90;;;;;;2059636;28;20023;-74
2022/02/21 01:54:23;;;;;;;1.98;1.10;;;10.80;99.90;;;;;;2060377;28;20037;-74
2022/02/21 01:55:26;;;;;;;2.25;1.00;;;10.80;99.90;;;;;;2059727;28;20015;-73
2022/02/21 01:56:31;;;;;;;2.63;1.05;;;10.80;99.90;;;;;;2057561;28;20054;-75
2022/02/21 01:57:33;;;;;;;1.92;1.00;;;10.80;99.90;;;;;;2070578;28;20044;-74
2022/02/21 01:58:33;;;;;;;2.63;0.90;;;10.80;99.90;;;;;;2065543;28;20021;-74
2022/02/21 01:59:36;;;;;;;3.00;0.93;;;10.70;99.90;;;;;;2058618;28;20037;-73
2022/02/21 02:00:37;;;;;;;3.95;1.00;;;10.70;99.90;;;;;;2072740;28;20556;-73
2022/02/21 02:01:40;;;;;;;2.75;1.00;;;10.80;99.90;;;;;;2073438;28;20030;-74
2022/02/21 02:02:45;;;;;;;2.00;0.93;;;10.70;99.90;;;;;;2066211;28;20470;-74
2022/02/21 02:03:47;;;;;;;2.30;1.00;;;10.70;99.90;;;;;;2050179;28;20027;-73
2022/02/21 02:04:47;;;;;;;1.77;0.90;;;10.80;99.90;;;;;;2049125;28;20159;-73
2022/02/21 02:05:48;;;;;;;3.13;1.13;;;10.80;99.90;;;;;;2058509;28;20449;-73
2022/02/21 02:06:49;;;;;;;2.33;1.05;;;10.80;99.90;;;;;;2056867;28;20565;-74
2022/02/21 02:07:50;;;;;;;1.92;0.90;;;10.80;99.90;;;;;;2049924;28;20059;-74
2022/02/21 02:08:50;;;;;;;1.35;1.00;;;10.80;99.90;;;;;;2057601;28;20027;-74
2022/02/21 02:09:51;;;;;;;2.47;0.80;;;10.80;99.90;;;;;;2050478;28;20104;-73
2022/02/21 02:10:51;;;;;;;1.63;0.90;;;10.70;99.90;;;;;;2056906;28;20026;-73
2022/02/21 02:11:52;;;;;;;2.38;1.00;;;10.80;99.90;;;;;;2058944;28;20023;-75
2022/02/21 02:12:53;;;;;;;1.65;0.80;;;10.80;99.90;;;;;;2064654;28;20033;-73
2022/02/21 02:13:54;;;;;;;2.35;1.00;;;10.80;99.90;;;;;;2051186;28;20107;-73
2022/02/21 02:14:54;;;;;;;1.23;0.90;;;10.70;99.90;;;;;;2056824;28;20035;-74
2022/02/21 02:15:55;;;;;;;1.83;0.85;;;10.70;99.90;;;;;;2060577;28;20035;-74
2022/02/21 02:17:00;;;;;;;2.00;0.93;;;10.70;99.90;;;;;;2064975;28;20022;-73
2022/02/21 02:18:01;;;;;;;2.05;1.00;;;10.70;99.90;;;;;;2061482;28;20019;-73
2022/02/21 02:19:01;;;;;;;2.25;1.10;;;10.70;99.90;;;;;;2064397;28;20018;-74
2022/02/21 02:20:02;;;;;;;3.25;1.00;;;10.70;99.90;;;;;;2061146;28;20026;-73
2022/02/21 02:21:03;;;;;;;1.02;0.80;;;10.70;99.90;;;;;;2061993;28;20090;-73
2022/02/21 02:22:20;;;;;;;1.23;0.90;;;10.70;99.90;;;;;;2059236;28;20045;-73
2022/02/21 02:23:20;;;;;;;2.35;0.90;;;10.70;99.90;;;;;;2066623;28;20041;-72
2022/02/21 02:24:22;;;;;;;1.17;0.70;;;10.70;99.90;;;;;;2068767;28;20057;-73
2022/02/21 02:25:23;;;;;;;4.95;0.90;;;10.70;99.90;;;;;;2058772;28;20026;-73
2022/02/21 02:26:24;;;;;;;1.20;0.85;;;10.70;99.90;;;;;;2061414;28;20022;-72
2022/02/21 02:27:28;;;;;;;1.77;0.77;;;10.80;99.90;;;;;;2059068;28;20604;-72
2022/02/21 02:28:28;;;;;;;2.38;0.90;;;10.80;99.90;;;;;;2067828;28;20015;-72
2022/02/21 02:29:29;;;;;;;1.15;0.70;;;10.70;99.90;;;;;;2064246;28;20058;-72
2022/02/21 02:30:29;;;;;;;1.83;0.80;;;10.80;99.90;;;;;;2069594;28;20043;-72
2022/02/21 02:31:30;;;;;;;1.27;0.80;;;10.80;99.90;;;;;;2069605;28;20094;-72
2022/02/21 02:32:31;;;;;;;1.20;0.80;;;10.80;99.90;;;;;;2070730;28;20037;-73
2022/02/21 02:33:33;;;;;;;2.08;0.70;;;10.90;99.90;;;;;;2065557;28;20058;-73
2022/02/21 02:34:34;;;;;;;1.08;0.85;;;10.90;99.90;;;;;;2069472;28;20019;-73
2022/02/21 02:35:34;;;;;;;0.65;0.65;;;10.90;99.90;;;;;;2056984;28;20058;-72
2022/02/21 02:36:35;;;;;;;1.50;0.73;;;10.90;99.90;;;;;;2063212;28;20018;-72
2022/02/21 02:37:36;;;;;;;1.45;0.90;;;10.90;99.90;;;;;;2063680;28;20074;-73
2022/02/21 02:38:37;;;;;;;0.80;0.80;;;11.00;99.90;;;;;;2062999;28;20046;-72
2022/02/21 02:39:39;;;;;;;0.73;0.70;;;11.00;99.90;;;;;;2055643;28;20031;-73
2022/02/21 02:40:39;;;;;;;1.30;0.68;;;11.00;99.90;;;;;;2063308;28;20042;-72
2022/02/21 02:41:41;;;;;;;1.10;0.70;;;10.90;99.90;;;;;;2064586;28;20097;-72
2022/02/21 02:42:42;;;;;;;0.85;0.70;;;10.90;99.90;;;;;;2056102;28;20038;-72
2022/02/21 02:43:42;;;;;;;1.33;0.90;;;10.90;99.90;;;;;;2067470;28;20022;-71
2022/02/21 02:44:43;;;;;;;1.55;0.80;;;10.90;99.90;;;;;;2064733;28;20090;-72
2022/02/21 02:45:44;;;;;;;2.03;0.80;;;10.90;99.90;;;;;;2065102;28;20046;-72
2022/02/21 02:46:45;;;;;;;1.52;0.88;;;10.90;99.90;;;;;;2072291;28;20049;-72
2022/02/21 02:47:45;;;;;;;2.28;0.90;;;10.90;99.90;;;;;;2064949;28;20074;-72
2022/02/21 02:48:46;;;;;;;1.00;0.70;;;10.90;99.90;;;;;;2071592;28;20066;-71
2022/02/21 02:49:47;;;;;;;1.20;0.77;;;10.90;99.90;;;;;;2064040;28;20038;-72
2022/02/21 02:50:48;;;;;;;1.70;0.80;;;10.90;99.90;;;;;;2062984;28;20027;-72
2022/02/21 02:51:48;;;;;;;1.27;0.80;;;11.00;99.90;;;;;;2057194;28;20026;-73
2022/02/21 02:52:49;;;;;;;1.45;0.80;;;10.90;99.90;;;;;;2057040;28;20143;-72
2022/02/21 02:53:50;;;;;;;4.05;1.00;;;10.90;99.90;;;;;;2065554;28;20034;-72
2022/02/21 02:54:51;;;;;;;1.05;0.68;;;10.90;99.90;;;;;;2071028;28;20041;-73
2022/02/21 02:55:51;;;;;;;1.20;0.85;;;10.90;99.90;;;;;;2064216;28;20346;-72
2022/02/21 02:56:52;;;;;;;1.33;0.80;;;10.90;99.90;;;;;;2057709;28;20071;-72
2022/02/21 02:57:53;;;;;;;0.85;0.70;;;10.80;99.90;;;;;;2057408;28;20035;-72
2022/02/21 02:58:54;;;;;;;1.80;1.00;;;10.80;99.90;;;;;;2062112;28;20065;-72
2022/02/21 02:59:54;;;;;;;1.17;0.70;;;10.80;99.90;;;;;;2064974;28;20426;-73
2022/02/21 03:00:55;;;;;;;1.23;0.73;;;10.80;99.90;;;;;;2071033;28;20022;-72
2022/02/21 03:01:55;;;;;;;1.33;0.70;;;10.70;99.90;;;;;;2064234;28;20034;-72
2022/02/21 03:02:56;;;;;;;1.08;0.75;;;10.70;99.90;;;;;;2062530;28;20034;-72
2022/02/21 03:03:56;;;;;;;1.02;0.60;;;10.70;99.90;;;;;;2058743;28;20125;-73
2022/02/21 03:04:57;;;;;;;1.25;0.70;;;10.70;99.90;;;;;;2063416;28;20089;-72
2022/02/21 03:05:58;;;;;;;2.00;0.73;;;10.70;99.90;;;;;;2058381;28;20421;-72
2022/02/21 03:07:00;;;;;;;1.70;0.73;;;10.70;99.90;;;;;;2063649;28;20038;-72
2022/02/21 03:08:00;;;;;;;0.82;0.70;;;10.80;99.90;;;;;;2072780;28;20030;-72
2022/02/21 03:09:02;;;;;;;1.63;0.73;;;10.80;99.90;;;;;;2070439;28;20026;-72
2022/02/21 03:10:03;;;;;;;2.72;0.70;;;10.80;99.90;;;;;;2059898;28;20177;-72
2022/02/21 03:11:04;;;;;;;2.58;0.80;;;10.80;99.90;;;;;;2062597;28;20023;-73
2022/02/21 03:12:05;;;;;;;1.23;0.75;;;10.80;99.90;;;;;;2040920;29;20464;-72
2022/02/21 03:13:06;;;;;;;0.82;0.80;;;10.80;99.90;;;;;;2041496;28;20039;-72
2022/02/21 03:14:06;;;;;;;1.05;0.70;;;10.80;99.90;;;;;;2058752;28;20022;-73
2022/02/21 03:15:08;;;;;;;1.73;0.80;;;10.80;99.90;;;;;;2062409;28;20117;-73
2022/02/21 03:16:08;;;;;;;1.55;0.70;;;10.80;99.90;;;;;;2065052;28;20118;-71
2022/02/21 03:17:09;;;;;;;1.00;0.68;;;10.80;99.90;;;;;;2060608;28;20037;-72
2022/02/21 03:18:09;;;;;;;1.48;0.70;;;10.80;99.90;;;;;;2051946;28;20078;-73
2022/02/21 03:19:10;;;;;;;1.10;0.80;;;10.70;99.90;;;;;;2061046;28;20034;-73
2022/02/21 03:20:11;;;;;;;0.77;0.60;;;10.70;99.90;;;;;;2059585;28;20029;-73
2022/02/21 03:21:12;;;;;;;0.73;0.70;;;10.70;99.90;;;;;;2060035;28;20050;-72
2022/02/21 03:22:12;;;;;;;1.63;0.80;;;10.70;99.90;;;;;;2060357;28;20027;-72
2022/02/21 03:23:13;;;;;;;2.40;0.80;;;10.70;99.90;;;;;;2059850;28;20629;-72
2022/02/21 03:24:13;;;;;;;1.85;0.70;;;10.70;99.90;;;;;;2067298;28;20034;-72
2022/02/21 03:25:14;;;;;;;1.80;0.80;;;10.60;99.90;;;;;;2067009;28;20018;-73
2022/02/21 03:26:15;;;;;;;1.05;0.70;;;10.60;99.90;;;;;;2060358;28;20077;-74
2022/02/21 03:27:15;;;;;;;0.73;0.60;;;10.60;99.90;;;;;;2070762;28;20030;-74
2022/02/21 03:28:17;;;;;;;1.42;0.80;;;10.50;99.90;;;;;;2071694;28;20018;-71
2022/02/21 03:29:17;;;;;;;0.73;0.70;;;10.50;99.90;;;;;;2059141;28;20050;-73
2022/02/21 03:30:18;;;;;;;1.40;0.75;;;10.50;99.90;;;;;;2068087;28;20079;-71
2022/02/21 03:31:19;;;;;;;1.08;0.70;;;10.50;99.90;;;;;;2066302;28;20034;-72
2022/02/21 03:32:19;;;;;;;2.35;0.82;;;10.50;99.90;;;;;;2056851;28;20031;-74
2022/02/21 03:33:21;;;;;;;0.80;0.80;;;10.40;99.90;;;;;;2061234;28;20438;-74
2022/02/21 03:34:21;;;;;;;1.27;0.70;;;10.50;99.90;;;;;;2064552;28;20034;-74
2022/02/21 03:35:22;;;;;;;1.10;0.70;;;10.50;99.90;;;;;;2059674;28;20039;-74
2022/02/21 03:36:22;;;;;;;1.55;0.70;;;10.50;99.90;;;;;;2053834;28;20165;-72
2022/02/21 03:37:23;;;;;;;1.40;0.70;;;10.60;99.90;;;;;;2058758;28;20046;-73
2022/02/21 03:38:23;;;;;;;2.35;0.80;;;10.60;99.90;;;;;;2069626;28;20453;-71
2022/02/21 03:39:24;;;;;;;2.15;0.88;;;10.60;99.90;;;;;;2066333;28;20031;-72
2022/02/21 03:40:25;;;;;;;1.30;0.65;;;10.60;99.90;;;;;;2064396;28;20030;-71
2022/02/21 03:41:27;;;;;;;1.30;0.70;;;10.60;99.90;;;;;;2055508;28;20385;-72
2022/02/21 03:42:27;;;;;;;1.30;0.70;;;10.70;99.90;;;;;;2063311;28;20030;-71
2022/02/21 03:43:28;;;;;;;0.63;0.60;;;10.70;99.90;;;;;;2063913;28;20037;-72
2022/02/21 03:44:28;;;;;;;1.02;0.70;;;10.70;99.90;;;;;;2064222;28;20038;-72
2022/02/21 03:45:29;;;;;;;0.60;0.60;;;10.70;99.90;;;;;;2063568;28;20104;-72
2022/02/21 03:46:30;;;;;;;0.90;0.70;;;10.70;99.90;;;;;;2056945;28;20022;-71
2022/02/21 03:47:31;;;;;;;1.08;0.90;;;10.70;99.90;;;;;;2059005;28;20533;-72
2022/02/21 03:48:32;;;;;;;1.30;0.82;;;10.80;99.90;;;;;;2064697;28;20034;-72
2022/02/21 03:49:32;;;;;;;1.38;0.70;;;10.80;99.90;;;;;;2064792;28;20026;-72
2022/02/21 03:50:33;;;;;;;1.02;0.77;;;10.80;99.90;;;;;;2074081;28;20018;-72
2022/02/21 03:51:34;;;;;;;2.13;0.70;;;10.70;99.90;;;;;;2065974;28;20489;-73
2022/02/21 03:52:35;;;;;;;3.03;0.90;;;10.70;99.90;;;;;;2071029;28;20125;-72
2022/02/21 03:53:35;;;;;;;2.63;1.10;;;10.70;99.90;;;;;;2070915;28;20033;-72
2022/02/21 03:54:36;;;;;;;2.70;0.70;;;10.50;99.90;;;;;;2071574;28;20465;-72
2022/02/21 03:55:36;;;;;;;1.27;0.65;;;9.80;99.90;;;;;;2057273;28;20019;-73
2022/02/21 03:56:37;;;;;;;0.98;0.65;;;9.30;99.90;;;;;;2056519;28;20117;-71
2022/02/21 03:57:38;;;;;;;1.85;0.70;;;8.90;99.90;;;;;;2058416;28;20026;-72
2022/02/21 03:58:41;;;;;;;1.13;0.75;;;8.60;99.90;;;;;;2064760;28;20073;-73
2022/02/21 03:59:42;;;;;;;2.22;0.80;;;8.30;99.90;;;;;;2063328;28;20030;-72
2022/02/21 04:00:42;;;;;;;2.20;0.80;;;8.10;99.90;;;;;;2065680;28;20560;-73
2022/02/21 04:01:43;;;;;;;3.50;0.70;;;8.00;99.90;;;;;;2057406;28;20482;-72
2022/02/21 04:02:43;;;;;;;2.33;0.65;;;7.90;99.90;;;;;;2064872;28;20034;-73
2022/02/21 04:03:44;;;;;;;2.60;0.70;;;7.70;99.90;;;;;;2057917;28;20015;-72
2022/02/21 04:04:45;;;;;;;1.90;0.80;;;7.60;99.90;;;;;;2072789;28;20736;-72
2022/02/21 04:05:45;;;;;;;1.55;0.70;;;7.60;99.90;;;;;;2073024;28;20068;-72
2022/02/21 04:06:46;;;;;;;1.80;0.63;;;7.50;99.90;;;;;;2065416;28;20104;-73
2022/02/21 04:07:46;;;;;;;1.90;0.80;;;7.50;99.90;;;;;;2058648;28;20023;-73
2022/02/21 04:08:47;;;;;;;1.33;0.80;;;7.40;99.90;;;;;;2064531;28;20034;-73
2022/02/21 04:09:48;;;;;;;1.88;0.65;;;7.40;99.90;;;;;;2056807;28;20708;-73
2022/02/21 04:10:49;;;;;;;2.40;0.90;;;7.40;99.90;;;;;;2052317;28;20027;-73
2022/02/21 04:11:49;;;;;;;3.17;0.80;;;7.30;99.90;;;;;;2064501;28;20038;-73
2022/02/21 04:12:50;;;;;;;0.93;0.77;;;7.30;99.90;;;;;;2057558;28;20031;-73
2022/02/21 04:13:51;;;;;;;1.45;0.77;;;7.30;99.90;;;;;;2058318;28;20026;-72
2022/02/21 04:14:51;;;;;;;1.85;0.80;;;7.30;99.90;;;;;;2057650;28;20542;-72
2022/02/21 04:15:52;;;;;;;1.95;0.80;;;7.20;99.90;;;;;;2057982;28;20038;-73
2022/02/21 04:16:52;;;;;;;2.92;0.70;;;7.20;99.90;;;;;;2057596;28;20462;-73
2022/02/21 04:17:53;;;;;;;1.73;0.70;;;7.20;99.90;;;;;;2057200;28;20026;-73
2022/02/21 04:18:54;;;;;;;0.90;0.80;;;7.20;99.90;;;;;;2057165;28;20482;-73
2022/02/21 04:19:54;;;;;;;0.77;0.70;;;7.20;99.90;;;;;;2056587;28;20077;-72
2022/02/21 04:20:55;;;;;;;2.38;0.93;;;7.20;99.90;;;;;;2057235;28;20030;-73
2022/02/21 04:21:58;;;;;;;1.67;0.70;;;7.20;99.90;;;;;;2057768;28;20043;-73
2022/02/21 04:22:59;;;;;;;1.33;0.70;;;7.20;99.90;;;;;;2065279;28;20502;-73
2022/02/21 04:24:00;;;;;;;1.13;0.75;;;7.20;99.90;;;;;;2065182;28;20050;-72
2022/02/21 04:25:00;;;;;;;1.90;0.80;;;7.20;99.90;;;;;;2057605;28;20604;-73
2022/02/21 04:26:04;;;;;;;1.50;0.73;;;7.20;99.90;;;;;;2057841;28;20121;-73
2022/02/21 04:27:05;;;;;;;1.00;0.73;;;7.20;99.90;;;;;;2057663;28;20544;-74
2022/02/21 04:28:06;;;;;;;2.85;0.80;;;7.30;99.90;;;;;;2065133;28;20046;-74
2022/02/21 04:29:06;;;;;;;1.95;0.90;;;7.20;99.90;;;;;;2065440;28;20034;-73
2022/02/21 04:30:08;;;;;;;1.25;0.80;;;7.20;99.90;;;;;;2065065;28;20018;-73
2022/02/21 04:31:09;;;;;;;2.60;0.80;;;7.30;99.90;;;;;;2065416;28;20030;-74
2022/02/21 04:32:10;;;;;;;1.98;0.70;;;7.30;99.90;;;;;;2057979;28;20031;-73
2022/02/21 04:33:11;;;;;;;2.33;0.70;;;7.30;99.90;;;;;;2057866;28;20038;-73
2022/02/21 04:34:11;;;;;;;2.42;0.73;;;7.40;99.90;;;;;;2056920;28;20106;-73
2022/02/21 04:35:13;;;;;;;2.38;0.65;;;7.40;99.90;;;;;;2049508;29;20027;-73
2022/02/21 04:36:15;;;;;;;0.90;0.70;;;7.40;99.90;;;;;;2049457;28;20047;-73
2022/02/21 04:37:16;;;;;;;0.98;0.70;;;7.40;99.90;;;;;;2057186;28;20022;-74
2022/02/21 04:38:17;;;;;;;1.23;0.70;;;7.40;99.90;;;;;;2058038;28;20158;-74
2022/02/21 04:39:17;;;;;;;0.60;0.60;;;7.40;99.90;;;;;;2058046;28;20065;-73
2022/02/21 04:40:28;;;;;;;1.17;0.80;;;7.50;99.90;;;;;;2057261;28;20031;-74
2022/02/21 04:41:28;;;;;;;;;;;7.40;99.90;;;;;;2057621;28;20126;-74
2022/02/21 04:42:29;;;;;;;0.73;0.70;;;7.40;99.90;;;;;;2057196;28;19914;-73
2022/02/21 04:43:30;;;;;;;1.40;0.77;;;7.50;99.90;;;;;;2056529;28;20125;-73
2022/02/21 04:44:30;;;;;;;0.80;0.60;;;7.50;99.90;;;;;;2048057;28;20051;-73
2022/02/21 04:45:31;;;;;;;1.23;0.70;;;7.50;99.90;;;;;;2048628;29;20151;-73
2022/02/21 04:46:32;;;;;;;1.30;0.80;;;7.50;99.90;;;;;;2056589;28;20019;-73
2022/02/21 04:47:32;;;;;;;2.38;0.70;;;7.50;99.90;;;;;;2057198;28;20568;-73
2022/02/21 04:48:34;;;;;;;2.08;0.70;;;7.40;99.90;;;;;;2057115;28;20035;-73
2022/02/21 04:49:34;;;;;;;1.23;0.70;;;7.40;99.90;;;;;;2063742;28;20026;-73
2022/02/21 04:50:35;;;;;;;0.82;0.65;;;7.30;99.90;;;;;;2064623;28;20050;-73
2022/02/21 04:51:35;;;;;;;1.08;0.70;;;7.30;99.90;;;;;;2057209;28;20110;-73
2022/02/21 04:52:37;;;;;;;2.45;1.00;;;7.30;99.90;;;;;;2057159;28;20034;-73
2022/02/21 04:53:38;;;;;;;1.55;0.95;;;7.30;99.90;;;;;;2057313;28;20583;-73
2022/02/21 04:54:38;;;;;;;1.83;0.80;;;7.20;99.90;;;;;;2056727;28;20042;-74
2022/02/21 04:55:39;;;;;;;2.28;0.80;;;7.20;99.90;;;;;;2049547;29;20031;-72
2022/02/21 04:56:40;;;;;;;1.75;0.80;;;7.20;99.90;;;;;;2057626;28;20438;-72
2022/02/21 04:57:41;;;;;;;1.95;0.77;;;7.20;99.90;;;;;;2058156;28;20031;-73
2022/02/21 04:58:42;;;;;;;1.90;1.25;;;7.20;99.90;;;;;;2057530;28;20041;-73
2022/02/21 04:59:43;;;;;;;1.00;0.85;;;7.10;99.90;;;;;;2056444;28;20478;-73
2022/02/21 05:00:43;;;;;;;2.30;0.80;;;7.10;99.90;;;;;;2057651;28;20087;-73
2022/02/21 05:01:44;;;;;;;2.78;0.85;;;7.10;99.90;;;;;;2050236;28;20059;-72
2022/02/21 05:02:44;;;;;;;1.60;0.63;;;7.10;99.90;;;;;;2057019;28;20042;-73
2022/02/21 05:03:45;;;;;;;1.88;0.80;;;7.10;99.90;;;;;;2064434;28;20034;-73
2022/02/21 05:04:46;;;;;;;2.60;0.80;;;7.10;99.90;;;;;;2057043;28;20042;-73
2022/02/21 05:05:46;;;;;;;1.65;0.80;;;7.00;99.90;;;;;;2056320;28;20039;-73
2022/02/21 05:06:47;;;;;;;2.65;0.95;;;7.00;99.90;;;;;;2040585;29;20106;-73
2022/02/21 05:07:47;;;;;;;1.40;0.80;;;7.00;99.90;;;;;;2048577;28;20502;-73
2022/02/21 05:08:48;;;;;;;2.53;0.90;;;7.00;99.90;;;;;;2056105;28;20034;-73
2022/02/21 05:09:48;;;;;;;1.45;0.90;;;7.00;99.90;;;;;;2056878;28;20061;-73
2022/02/21 05:10:49;;;;;;;3.53;0.95;;;6.90;99.90;;;;;;2057001;28;20102;-74
2022/02/21 05:11:50;;;;;;;1.27;0.80;;;6.90;99.90;;;;;;2056749;28;20145;-73
2022/02/21 05:12:50;;;;;;;1.48;0.80;;;6.90;99.90;;;;;;2057836;28;20027;-73
2022/02/21 05:13:51;;;;;;;1.60;0.88;;;6.90;99.90;;;;;;2056496;28;20022;-73
2022/02/21 05:14:51;;;;;;;0.88;0.85;;;6.90;99.90;;;;;;2056607;28;20035;-73
2022/02/21 05:15:52;;;;;;;2.08;0.90;;;6.90;99.90;;;;;;2057049;28;20110;-72
2022/02/21 05:16:53;;;;;;;1.77;0.80;;;6.90;99.90;;;;;;2056776;28;20054;-73
2022/02/21 05:17:54;;;;;;;1.35;0.80;;;6.90;99.90;;;;;;2056995;28;20050;-74
2022/02/21 05:18:54;;;;;;;1.50;0.80;;;6.90;99.90;;;;;;2056859;28;20215;-73
2022/02/21 05:19:55;;;;;;;2.20;0.80;;;6.90;99.90;;;;;;2056544;28;20114;-73